Time;durP1;ratioP1;P1;durP2;ratioP2;P2;SDS_P1;SDS_P2;PMS_P1;PMS_P2;Temp;Humidity;BMP_temperature;BMP_pressure;BME280_temperature;BME280_humidity;BME280_pressure;Samples;Min_cycle;Max_cycle;Signal;HPM_P1;HPM_P2
2022/05/13 00:01:05;;;;;;;5.93;3.90;;;;;;;21.21;47.37;99950.50;5032329;28;20013;-47
2022/05/13 00:03:31;;;;;;;5.13;3.75;;;;;;;21.13;46.61;99942.94;5041590;28;20023;-48
2022/05/13 00:05:56;;;;;;;5.75;3.80;;;;;;;21.19;46.18;99937.28;5052238;28;20633;-47
2022/05/13 00:08:22;;;;;;;6.22;4.05;;;;;;;21.12;46.61;99941.31;5052115;28;20033;-47
2022/05/13 00:10:47;;;;;;;6.75;4.18;;;;;;;20.99;47.03;99939.94;5052202;28;20096;-46
2022/05/13 00:13:13;;;;;;;5.72;3.92;;;;;;;21.17;45.75;99938.59;5052179;28;20017;-48
2022/05/13 00:15:42;;;;;;;6.25;3.92;;;;;;;21.12;45.16;99933.19;5051804;28;20029;-50
2022/05/13 00:18:08;;;;;;;;;;;;;;;21.37;44.62;99938.63;5052658;28;20020;-47
2022/05/13 00:20:33;;;;;;;7.97;4.35;;;;;;;20.80;46.65;99931.50;5051754;28;19977;-48
2022/05/13 00:22:59;;;;;;;6.50;4.13;;;;;;;20.61;46.91;99906.84;5051973;28;20024;-48
2022/05/13 00:25:28;;;;;;;6.85;4.20;;;;;;;20.67;47.15;99933.63;5052013;28;20032;-48
2022/05/13 00:28:00;;;;;;;7.32;4.70;;;;;;;20.55;48.42;99926.81;5052171;28;20480;-48
2022/05/13 00:30:30;;;;;;;7.57;4.32;;;;;;;20.69;46.97;99925.25;5051856;28;20104;-47
2022/05/13 00:32:56;;;;;;;5.43;4.10;;;;;;;20.75;48.68;99936.91;5052032;28;20053;-48
2022/05/13 00:35:22;;;;;;;8.65;4.13;;;;;;;20.82;46.18;99922.03;5051750;28;20020;-48
2022/05/13 00:37:48;;;;;;;5.60;4.55;;;;;;;20.96;45.47;99930.47;5050546;28;20455;-47
2022/05/13 00:40:15;;;;;;;5.80;4.13;;;;;;;21.00;46.59;99931.56;5051937;28;20029;-47
2022/05/13 00:42:41;;;;;;;7.03;4.38;;;;;;;21.10;44.71;99930.75;5051848;28;20043;-45
2022/05/13 00:45:08;;;;;;;8.88;4.60;;;;;;;21.09;43.84;99929.13;5051541;28;20063;-49
2022/05/13 00:47:33;;;;;;;5.90;4.20;;;;;;;20.78;44.95;99939.06;5051510;28;20029;-48
2022/05/13 00:50:01;;;;;;;9.43;4.88;;;;;;;20.78;44.65;99936.38;5051646;28;20075;-48
2022/05/13 00:52:27;;;;;;;8.75;4.32;;;;;;;20.84;45.44;99936.09;5051366;28;20142;-50
2022/05/13 00:54:54;;;;;;;6.50;4.35;;;;;;;20.80;45.62;99926.09;5051348;28;20111;-48
2022/05/13 00:57:21;;;;;;;7.78;4.63;;;;;;;20.64;45.38;99912.53;5051605;28;20099;-48
2022/05/13 00:59:49;;;;;;;6.50;4.68;;;;;;;20.88;45.21;99939.91;5051482;28;20448;-47
2022/05/13 01:02:16;;;;;;;6.47;4.38;;;;;;;20.78;44.84;99934.47;5051730;28;20058;-47
2022/05/13 01:04:43;;;;;;;7.70;4.47;;;;;;;20.74;44.54;99941.50;5032755;28;20116;-46
2022/05/13 01:07:12;;;;;;;7.80;4.43;;;;;;;20.56;44.87;99934.66;5031871;28;20519;-47
2022/05/13 01:09:44;;;;;;;5.10;4.28;;;;;;;20.43;45.71;99940.56;5032025;28;20165;-47
2022/05/13 01:12:13;;;;;;;6.50;4.50;;;;;;;20.40;45.69;99936.47;5031566;28;20033;-48
2022/05/13 01:14:45;;;;;;;7.80;4.30;;;;;;;20.22;46.03;99931.50;5031262;28;20094;-46
2022/05/13 01:20:13;;;;;;;17.35;5.25;;;;;;;19.97;46.46;99933.03;5031725;28;20044;-47
2022/05/13 01:22:50;;;;;;;13.07;4.88;;;;;;;19.90;47.24;99940.53;5031832;28;20033;-47
2022/05/13 01:25:20;;;;;;;27.20;6.03;;;;;;;19.85;47.35;99933.19;5031941;28;20102;-49
2022/05/13 01:27:48;;;;;;;39.92;7.50;;;;;;;19.88;47.65;99934.59;5031288;28;20025;-46
2022/05/13 01:30:20;;;;;;;30.60;6.68;;;;;;;19.84;48.12;99930.78;5030997;28;20054;-47
2022/05/13 01:32:45;;;;;;;17.67;5.78;;;;;;;19.79;46.74;99934.25;5030972;28;20021;-47
2022/05/13 01:35:11;;;;;;;12.15;4.90;;;;;;;19.79;47.50;99923.44;5031066;28;20021;-48
2022/05/13 01:37:37;;;;;;;10.80;4.88;;;;;;;19.61;47.14;99931.91;5030877;28;20400;-46
2022/05/13 01:40:04;;;;;;;9.15;4.68;;;;;;;19.77;47.03;99928.28;5031183;28;20206;-47
2022/05/13 01:42:31;;;;;;;6.22;4.47;;;;;;;19.70;46.57;99931.22;5031387;28;20044;-47
2022/05/13 01:44:57;;;;;;;6.72;4.43;;;;;;;19.80;47.14;99932.34;5030862;28;20559;-48
2022/05/13 01:47:24;;;;;;;6.57;4.50;;;;;;;19.82;46.93;99925.63;5031251;28;20386;-50
2022/05/13 01:49:50;;;;;;;7.50;4.72;;;;;;;19.89;46.39;99931.59;5031123;28;20033;-50
2022/05/13 01:52:15;;;;;;;6.47;4.40;;;;;;;19.87;46.40;99932.94;5031322;28;20131;-48
2022/05/13 01:54:41;;;;;;;7.80;4.70;;;;;;;19.84;46.38;99926.19;5030752;28;20449;-48
2022/05/13 01:57:06;;;;;;;6.78;4.57;;;;;;;19.80;46.98;99919.69;5030985;28;20420;-50
2022/05/13 01:59:32;;;;;;;8.90;4.88;;;;;;;19.79;47.00;99917.25;5031128;28;20025;-49
2022/05/13 02:01:57;;;;;;;5.75;4.47;;;;;;;19.83;46.93;99919.16;5031069;28;20057;-48
2022/05/13 02:04:23;;;;;;;6.60;4.28;;;;;;;19.84;47.20;99920.78;5047370;28;20029;-47
2022/05/13 02:06:48;;;;;;;8.55;4.72;;;;;;;19.83;47.17;99927.25;5049918;28;20025;-47
2022/05/13 02:09:14;;;;;;;7.53;4.72;;;;;;;19.83;46.97;99919.16;5050896;28;20029;-37
2022/05/13 02:11:39;;;;;;;7.97;4.60;;;;;;;19.85;46.94;99925.09;5051094;28;20033;-47
2022/05/13 02:14:06;;;;;;;5.85;4.50;;;;;;;19.69;46.68;99931.47;5050531;28;20035;-47
2022/05/13 02:16:31;;;;;;;6.70;4.38;;;;;;;19.71;46.78;99942.81;5050471;28;20072;-48
2022/05/13 02:18:57;;;;;;;9.27;4.70;;;;;;;19.68;47.48;99938.72;5050890;28;20041;-47
2022/05/13 02:21:24;;;;;;;7.90;5.00;;;;;;;19.59;47.51;99929.50;5050526;28;20403;-49
2022/05/13 02:23:50;;;;;;;8.88;4.80;;;;;;;19.64;48.09;99934.91;5050742;28;20032;-47
2022/05/13 02:26:17;;;;;;;9.18;4.45;;;;;;;19.76;47.95;99936.66;5050706;28;20025;-50
2022/05/13 02:28:43;;;;;;;7.65;5.07;;;;;;;19.82;46.68;99931.03;5049996;28;20179;-47
2022/05/13 02:31:10;;;;;;;9.18;4.47;;;;;;;19.78;47.37;99929.94;5050880;28;20452;-47
2022/05/13 02:33:36;;;;;;;7.90;4.93;;;;;;;19.77;46.36;99939.09;5050732;28;20032;-47
2022/05/13 02:36:03;;;;;;;10.90;4.63;;;;;;;19.60;46.81;99930.31;5050335;28;20020;-47
2022/05/13 02:38:29;;;;;;;12.88;5.35;;;;;;;19.39;47.50;99937.44;5050418;28;20025;-48
2022/05/13 02:41:13;;;;;;;11.13;5.53;;;;;;;19.23;48.04;99933.75;5050771;28;20031;-48
2022/05/13 02:43:54;;;;;;;9.70;5.20;;;;;;;19.16;48.51;99933.19;5050364;28;20033;-47
2022/05/13 02:46:23;;;;;;;10.23;5.13;;;;;;;19.00;49.00;99932.19;5050060;28;20488;-48
2022/05/13 02:48:49;;;;;;;7.38;5.35;;;;;;;19.00;48.59;99932.19;5050064;28;20025;-48
2022/05/13 02:51:15;;;;;;;8.70;5.68;;;;;;;18.95;49.29;99932.97;5050629;28;20074;-47
2022/05/13 02:53:41;;;;;;;13.02;6.00;;;;;;;18.85;49.25;99925.59;5050469;28;20032;-46
2022/05/13 02:56:07;;;;;;;10.00;5.82;;;;;;;18.79;49.36;99926.59;5050491;28;20032;-47
2022/05/13 02:58:34;;;;;;;10.82;5.43;;;;;;;18.81;49.88;99931.72;5049747;28;20036;-46
2022/05/13 03:01:02;;;;;;;14.35;5.90;;;;;;;18.81;50.29;99939.81;5049262;28;20500;-47
2022/05/13 03:03:28;;;;;;;16.08;6.25;;;;;;;18.86;49.61;99938.00;5041506;28;20492;-49
2022/05/13 03:05:53;;;;;;;14.32;6.22;;;;;;;18.85;49.85;99943.63;5030012;28;20025;-48
2022/05/13 03:08:19;;;;;;;15.32;5.35;;;;;;;18.87;49.34;99939.63;5029826;28;20044;-48
2022/05/13 03:10:45;;;;;;;14.98;5.93;;;;;;;18.79;49.76;99940.06;5028919;28;20082;-47
2022/05/13 03:13:10;;;;;;;8.35;5.18;;;;;;;18.84;49.38;99950.09;5029098;28;20037;-48
2022/05/13 03:15:37;;;;;;;12.75;5.47;;;;;;;18.80;49.88;99955.19;5028719;28;20540;-47
2022/05/13 03:18:02;;;;;;;14.25;6.18;;;;;;;18.70;50.13;99939.69;5050279;28;20099;-46
2022/05/13 03:20:28;;;;;;;9.63;5.47;;;;;;;18.80;49.83;99948.97;5051984;28;20609;-48
2022/05/13 03:22:53;;;;;;;10.00;5.97;;;;;;;18.69;49.90;99953.41;5053072;28;20063;-46
2022/05/13 03:25:20;;;;;;;56.25;32.15;;;;;;;18.69;50.23;99953.41;5053125;28;20024;-46
2022/05/13 03:27:46;;;;;;;22.08;13.57;;;;;;;19.08;51.66;99947.94;5053242;28;20055;-47
2022/05/13 03:30:15;;;;;;;120.93;64.28;;;;;;;19.16;50.01;99955.56;5052663;28;20136;-47
2022/05/13 03:32:42;;;;;;;33.50;15.75;;;;;;;19.22;49.67;99959.94;5052724;28;20033;-47
2022/05/13 03:35:12;;;;;;;19.58;7.68;;;;;;;19.19;49.87;99962.31;5052897;28;20028;-47
2022/05/13 03:37:37;;;;;;;17.77;6.40;;;;;;;19.09;50.23;99963.84;5053404;28;20048;-48
2022/05/13 03:40:03;;;;;;;16.35;7.32;;;;;;;18.95;50.38;99951.84;5053167;28;20063;-48
2022/05/13 03:42:29;;;;;;;14.05;6.70;;;;;;;18.99;50.28;99969.16;5051532;28;20163;-47
2022/05/13 03:44:55;;;;;;;15.45;6.60;;;;;;;19.11;49.79;99972.53;5052415;28;20652;-47
2022/05/13 03:47:20;;;;;;;15.63;6.20;;;;;;;19.43;50.23;99971.72;5051352;28;20025;-47
2022/05/13 03:49:46;;;;;;;19.02;7.00;;;;;;;19.58;49.93;99975.63;5051569;28;20552;-47
2022/05/13 03:52:12;;;;;;;15.85;6.72;;;;;;;19.86;50.13;99975.34;5051329;28;20033;-49
2022/05/13 03:54:38;;;;;;;17.83;6.63;;;;;;;20.09;48.98;99973.34;5051322;28;20477;-49
2022/05/13 03:57:08;;;;;;;10.60;5.90;;;;;;;20.47;46.59;99974.09;5050427;28;20098;-47
2022/05/13 03:59:34;;;;;;;12.35;5.50;;;;;;;20.69;45.89;99976.63;5051015;28;20068;-46
2022/05/13 04:02:00;;;;;;;8.70;5.28;;;;;;;20.91;45.80;99981.84;5051618;28;20032;-46
2022/05/13 04:04:29;;;;;;;14.45;5.80;;;;;;;21.24;46.14;99977.03;5034269;28;20444;-48
2022/05/13 04:09:40;;;;;;;15.57;6.10;;;;;;;21.92;44.46;99989.56;5031558;28;20217;-47
2022/05/13 04:17:33;;;;;;;21.83;10.27;;;;;;;22.93;42.41;100009.31;5031158;28;20499;-49
2022/05/13 04:19:58;;;;;;;19.67;6.75;;;;;;;23.17;42.06;99998.66;5030967;28;20033;-46
2022/05/13 04:22:27;;;;;;;41.85;19.30;;;;;;;23.56;41.07;100003.25;5031024;28;20095;-49
2022/05/13 04:24:52;;;;;;;45.70;25.33;;;;;;;23.86;40.93;100003.31;5031162;28;20029;-47
2022/05/13 04:27:18;;;;;;;29.65;21.08;;;;;;;23.91;39.25;100005.97;5048526;28;20029;-47
2022/05/13 04:29:44;;;;;;;55.45;35.35;;;;;;;24.17;39.29;100003.81;5050812;28;20044;-50
2022/05/13 04:32:10;;;;;;;28.00;15.70;;;;;;;24.46;38.22;100006.50;5052496;28;20392;-48
2022/05/13 04:34:36;;;;;;;25.48;16.48;;;;;;;24.85;37.27;100008.22;5051686;28;20476;-51
2022/05/13 04:37:02;;;;;;;24.67;15.05;;;;;;;25.20;36.70;100008.84;5051335;28;20020;-47
2022/05/13 04:39:28;;;;;;;10.95;6.10;;;;;;;25.55;36.10;100010.25;5051195;28;20025;-48
2022/05/13 04:44:38;;;;;;;13.35;4.47;;;;;;;26.32;34.78;100014.38;5051735;28;20027;-47
2022/05/13 04:48:15;;;;;;;11.07;4.80;;;;;;;26.58;34.31;100013.88;5051307;28;20111;-48
2022/05/13 04:49:50;;;;;;;7.88;4.75;;;;;;;26.92;33.31;100018.09;5049093;28;20021;-48
2022/05/13 04:52:15;;;;;;;9.57;4.80;;;;;;;27.28;32.83;100018.16;5050716;28;20024;-46
2022/05/13 04:54:41;;;;;;;10.10;5.00;;;;;;;27.50;31.85;100013.84;5050911;28;20021;-50
2022/05/13 04:57:06;;;;;;;11.90;5.07;;;;;;;27.78;31.96;100010.94;5050577;28;20349;-46
2022/05/13 04:59:32;;;;;;;9.02;4.80;;;;;;;28.12;31.54;100009.56;5050467;28;20385;-47
2022/05/13 05:01:57;;;;;;;13.60;4.85;;;;;;;28.24;30.88;100015.25;5051418;28;20468;-46
2022/05/13 05:04:22;;;;;;;12.00;4.97;;;;;;;28.43;30.79;100018.56;5051278;28;20025;-47
2022/05/13 05:06:48;;;;;;;29.38;21.70;;;;;;;28.73;30.58;100016.09;5050755;28;20453;-47
2022/05/13 05:09:13;;;;;;;26.42;15.00;;;;;;;29.04;30.52;100015.19;5051131;28;20017;-48
2022/05/13 05:11:39;;;;;;;12.05;5.53;;;;;;;29.40;29.67;100025.88;5051019;28;20043;-47
2022/05/13 05:14:04;;;;;;;9.90;5.20;;;;;;;29.76;29.29;100021.19;5051109;28;20035;-48
2022/05/13 05:16:30;;;;;;;25.13;14.68;;;;;;;29.99;28.45;100022.56;5051123;28;20103;-50
2022/05/13 05:18:56;;;;;;;13.20;5.53;;;;;;;30.24;28.01;100006.34;5050786;28;20476;-50
2022/05/13 05:21:22;;;;;;;8.50;4.82;;;;;;;30.71;27.86;100028.28;5050741;28;20102;-49
2022/05/13 05:23:49;;;;;;;14.02;5.10;;;;;;;30.72;27.74;100026.31;5050941;28;20433;-50
2022/05/13 05:26:14;;;;;;;8.80;5.47;;;;;;;30.58;27.45;100032.06;5051055;28;20025;-49
2022/05/13 05:28:41;;;;;;;14.45;5.43;;;;;;;30.72;26.87;100023.56;5050428;28;20075;-48
2022/05/13 05:31:08;;;;;;;16.13;5.90;;;;;;;30.90;27.44;100025.13;5050972;28;20017;-48
2022/05/13 05:33:34;;;;;;;12.35;4.80;;;;;;;31.15;27.30;100019.78;5050773;28;20459;-48
2022/05/13 05:35:59;;;;;;;10.15;4.32;;;;;;;31.40;26.50;100028.94;5050354;28;20055;-47
2022/05/13 05:38:25;;;;;;;10.43;4.00;;;;;;;31.61;26.21;100028.94;5050913;28;20323;-50
2022/05/13 05:40:50;;;;;;;12.38;7.97;;;;;;;31.76;25.48;100033.81;5049731;28;20036;-48
2022/05/13 05:43:17;;;;;;;17.17;7.40;;;;;;;31.63;25.79;100032.16;5050688;28;20029;-49
2022/05/13 05:45:43;;;;;;;13.55;9.40;;;;;;;32.04;25.32;100032.41;5049865;28;20506;-48
2022/05/13 05:48:12;;;;;;;8.25;3.95;;;;;;;31.95;24.92;100030.53;5050907;28;20024;-49
2022/05/13 05:50:38;;;;;;;12.38;4.18;;;;;;;32.00;25.01;100025.94;5050361;28;20045;-51
2022/05/13 05:53:04;;;;;;;8.15;4.03;;;;;;;31.68;26.02;100023.69;5049209;28;20032;-51
2022/05/13 05:58:16;;;;;;;9.75;5.40;;;;;;;32.44;24.51;100017.97;5050903;28;20086;-48
2022/05/13 06:00:46;;;;;;;7.50;3.80;;;;;;;32.45;24.28;100022.34;5050286;28;20106;-50
2022/05/13 06:03:12;;;;;;;5.95;3.40;;;;;;;32.82;23.88;100025.09;5050237;28;20029;-50
2022/05/13 06:05:38;;;;;;;6.55;3.70;;;;;;;33.08;23.61;100024.72;5050345;28;20039;-50
2022/05/13 06:08:04;;;;;;;8.85;3.80;;;;;;;32.88;23.71;100023.69;5050348;28;20021;-48
2022/05/13 06:10:32;;;;;;;11.20;3.60;;;;;;;32.81;23.67;100021.56;5050215;28;20029;-48
2022/05/13 06:12:57;;;;;;;8.50;3.47;;;;;;;32.60;24.28;100015.38;5049899;28;20043;-49
2022/05/13 06:15:23;;;;;;;7.65;3.88;;;;;;;32.65;24.70;100018.72;5050296;28;20416;-50
2022/05/13 06:17:52;;;;;;;7.75;3.90;;;;;;;32.82;24.44;100016.84;5050272;28;20028;-48
2022/05/13 06:20:23;;;;;;;4.63;3.45;;;;;;;33.34;23.93;100021.56;5050177;28;20075;-48
2022/05/13 06:22:49;;;;;;;7.05;3.50;;;;;;;33.47;23.99;100025.88;5049856;28;20588;-48
2022/05/13 06:25:17;;;;;;;8.90;3.80;;;;;;;33.58;23.28;100023.41;5049667;28;20033;-49
2022/05/13 06:27:44;;;;;;;6.32;3.47;;;;;;;33.71;23.32;100026.13;5049180;28;20029;-51
2022/05/13 06:30:15;;;;;;;8.53;4.30;;;;;;;33.61;23.50;100025.47;5049799;28;20045;-50
2022/05/13 06:32:41;;;;;;;14.05;6.03;;;;;;;33.46;23.87;100024.25;5049719;28;20032;-51
2022/05/13 06:35:08;;;;;;;7.95;4.40;;;;;;;33.55;23.52;100021.34;5049503;28;20021;-50
2022/05/13 06:37:33;;;;;;;5.68;3.80;;;;;;;33.91;22.99;100014.06;5050034;28;20047;-51
2022/05/13 06:39:59;;;;;;;6.53;3.63;;;;;;;34.37;22.56;100011.69;5050139;28;20485;-50
2022/05/13 06:42:24;;;;;;;5.38;3.50;;;;;;;34.80;21.75;100006.38;5049985;28;20447;-51
2022/05/13 06:44:50;;;;;;;9.93;4.38;;;;;;;33.60;23.38;100007.28;5049501;28;20037;-51
2022/05/13 06:47:15;;;;;;;13.70;4.90;;;;;;;34.26;23.17;100014.19;5050107;28;20043;-48
2022/05/13 06:49:41;;;;;;;8.98;3.70;;;;;;;33.89;23.06;100003.38;5049379;28;20075;-49
2022/05/13 06:52:07;;;;;;;8.88;3.80;;;;;;;33.86;23.43;99995.00;5051291;28;20024;-49
2022/05/13 06:54:32;;;;;;;8.93;3.80;;;;;;;33.16;23.71;99998.19;5052139;28;20048;-52
2022/05/13 06:56:58;;;;;;;6.60;3.60;;;;;;;34.02;22.88;99995.00;5053528;28;20025;-48
2022/05/13 06:59:23;;;;;;;8.75;3.90;;;;;;;34.08;23.48;99999.09;5053530;28;20033;-49
2022/05/13 07:01:49;;;;;;;8.75;3.67;;;;;;;33.65;23.18;99985.00;5053883;28;20101;-51
2022/05/13 07:04:15;;;;;;;9.45;3.53;;;;;;;34.16;22.74;99995.41;5037492;28;20126;-49
2022/05/13 07:06:40;;;;;;;8.15;4.00;;;;;;;33.36;23.10;99999.94;5033912;28;20119;-49
2022/05/13 07:09:06;;;;;;;9.95;3.80;;;;;;;33.78;22.85;99982.97;5033483;28;20021;-50
2022/05/13 07:11:32;;;;;;;4.80;3.80;;;;;;;34.24;22.92;99988.09;5033290;28;20473;-50
2022/05/13 07:13:57;;;;;;;8.38;3.70;;;;;;;34.83;22.50;99989.06;5033335;28;20106;-50
2022/05/13 07:16:23;;;;;;;6.53;3.75;;;;;;;35.51;21.43;100000.72;5033089;28;20057;-53
2022/05/13 07:18:49;;;;;;;12.38;3.83;;;;;;;35.78;21.25;99990.59;5033376;28;20507;-49
2022/05/13 07:21:15;;;;;;;8.93;3.47;;;;;;;36.05;20.71;99991.44;5033180;28;20085;-51
2022/05/13 07:23:41;;;;;;;8.73;3.45;;;;;;;36.31;20.40;99989.91;5033178;28;20032;-49
2022/05/13 07:26:06;;;;;;;8.75;3.92;;;;;;;36.62;20.24;99994.34;5032778;28;20107;-50
2022/05/13 07:28:33;;;;;;;6.45;3.72;;;;;;;36.64;19.99;99983.66;5033173;28;20056;-50
2022/05/13 07:31:00;;;;;;;8.65;3.60;;;;;;;36.32;20.26;99986.75;5033387;28;20053;-50
2022/05/13 07:33:28;;;;;;;5.78;3.90;;;;;;;35.90;20.15;99984.06;5033156;28;20044;-52
2022/05/13 07:35:54;;;;;;;9.48;3.70;;;;;;;36.40;20.42;99980.19;5032492;28;20067;-51
2022/05/13 07:38:19;;;;;;;7.38;3.38;;;;;;;37.00;19.63;99977.84;5033119;28;20112;-51
2022/05/13 07:43:29;;;;;;;6.00;3.80;;;;;;;37.45;19.60;99974.03;5033314;28;20496;-49
2022/05/13 07:45:54;;;;;;;7.80;3.83;;;;;;;37.45;18.85;99974.03;5032815;28;20113;-50
2022/05/13 07:48:20;;;;;;;6.80;3.78;;;;;;;36.76;19.38;99969.59;5032501;28;20025;-48
2022/05/13 07:50:45;;;;;;;8.23;5.22;;;;;;;34.97;21.01;99966.44;5033060;28;20108;-47
2022/05/13 07:53:11;;;;;;;5.75;3.70;;;;;;;35.56;21.29;99972.75;5031539;28;20031;-48
2022/05/13 07:55:36;;;;;;;8.95;4.20;;;;;;;33.88;22.82;99962.34;5032153;28;20101;-49
2022/05/13 07:58:02;;;;;;;6.50;3.55;;;;;;;34.94;20.91;99959.69;5032217;28;20460;-51
2022/05/13 08:00:29;;;;;;;8.57;4.13;;;;;;;35.19;20.47;99951.13;5032700;28;20474;-48
2022/05/13 08:03:01;;;;;;;7.60;3.88;;;;;;;35.36;20.34;99958.19;5032163;28;20114;-49
2022/05/13 08:05:29;;;;;;;5.95;3.22;;;;;;;35.66;20.21;99954.75;5032162;28;20112;-51
2022/05/13 08:08:14;;;;;;;6.53;3.40;;;;;;;36.46;19.75;99955.72;5032414;28;20027;-49
2022/05/13 08:10:44;;;;;;;4.43;3.53;;;;;;;37.02;19.24;99958.84;5032547;28;20125;-50
2022/05/13 08:13:11;;;;;;;6.25;3.58;;;;;;;37.40;19.36;99954.94;5032200;28;20153;-51
2022/05/13 08:15:36;;;;;;;9.52;3.70;;;;;;;37.60;18.73;99949.97;5032318;28;20021;-49
2022/05/13 08:18:02;;;;;;;7.15;3.90;;;;;;;37.62;18.44;99950.41;5032007;28;20100;-51
2022/05/13 08:20:28;;;;;;;9.45;3.78;;;;;;;36.73;20.04;99950.19;5031441;28;20104;-47
2022/05/13 08:22:55;;;;;;;8.55;3.80;;;;;;;37.03;18.89;99943.78;5031361;28;20131;-49
2022/05/13 08:25:20;;;;;;;5.40;3.97;;;;;;;36.59;18.86;99946.00;5031231;28;20021;-50
2022/05/13 08:27:47;;;;;;;6.90;3.60;;;;;;;35.94;19.78;99940.63;5031710;28;20039;-50
2022/05/13 08:30:13;;;;;;;6.15;3.83;;;;;;;34.93;20.47;99947.03;5031056;28;20461;-48
2022/05/13 08:32:39;;;;;;;9.40;3.80;;;;;;;34.83;21.40;99945.66;5031468;28;20028;-48
2022/05/13 08:35:05;;;;;;;5.32;3.83;;;;;;;34.77;21.63;99936.03;5031145;28;20413;-50
2022/05/13 08:37:31;;;;;;;10.82;3.83;;;;;;;34.67;22.05;99950.41;5031849;28;20039;-51
2022/05/13 08:40:00;;;;;;;4.70;3.58;;;;;;;35.23;21.07;99947.25;5030721;28;20026;-49
2022/05/13 08:42:37;;;;;;;6.95;3.67;;;;;;;35.71;20.98;99944.22;5031079;28;20017;-49
2022/05/13 08:45:08;;;;;;;6.68;3.50;;;;;;;36.27;20.35;99933.66;5030677;28;20028;-51
2022/05/13 08:47:51;;;;;;;7.32;4.03;;;;;;;35.78;21.12;99936.03;5031140;28;20026;-50
2022/05/13 08:50:30;;;;;;;8.82;3.90;;;;;;;35.97;20.22;99929.63;5031285;28;20025;-49
2022/05/13 08:53:19;;;;;;;6.18;3.90;;;;;;;35.14;21.33;99927.31;5030724;28;20463;-50
2022/05/13 08:55:50;;;;;;;10.25;3.95;;;;;;;35.71;20.85;99924.06;5030975;28;20112;-50
2022/05/13 08:58:30;;;;;;;4.88;4.18;;;;;;;34.58;22.11;99920.22;5030911;28;20082;-50
2022/05/13 09:00:59;;;;;;;7.10;4.30;;;;;;;34.23;22.33;99912.75;5030803;28;20064;-50
2022/05/13 09:03:31;;;;;;;6.10;4.70;;;;;;;33.41;23.31;99911.44;5039614;28;20032;-49
2022/05/13 09:06:18;;;;;;;5.97;4.10;;;;;;;32.88;24.62;99900.53;5050713;28;20029;-50
2022/05/13 09:08:43;;;;;;;7.25;3.90;;;;;;;33.56;23.94;99895.28;5050915;28;20416;-49
2022/05/13 09:11:20;;;;;;;10.93;4.40;;;;;;;34.81;23.02;99900.19;5050560;28;20128;-51
2022/05/13 09:14:03;;;;;;;7.78;4.00;;;;;;;35.47;22.16;99892.78;5050186;28;20455;-48
2022/05/13 09:17:15;;;;;;;6.90;4.03;;;;;;;34.50;22.39;99896.38;5050623;28;20053;-49
2022/05/13 09:19:59;;;;;;;6.72;4.28;;;;;;;34.62;23.49;99895.44;5050192;28;20033;-48
2022/05/13 09:22:42;;;;;;;9.77;4.75;;;;;;;33.68;23.54;99886.94;5050524;28;20104;-49
2022/05/13 09:25:35;;;;;;;8.85;4.22;;;;;;;32.95;24.59;99886.13;5050179;28;20020;-51
2022/05/13 09:28:09;;;;;;;5.90;4.05;;;;;;;33.50;24.58;99878.19;5029153;28;20049;-48
2022/05/13 09:30:40;;;;;;;8.38;4.53;;;;;;;32.92;25.22;99876.63;5050423;28;20049;-48
2022/05/13 09:33:34;;;;;;;7.70;4.10;;;;;;;33.69;24.89;99875.53;5050435;28;20120;-48
2022/05/13 09:36:27;;;;;;;6.75;3.90;;;;;;;34.04;23.93;99865.72;5050086;28;20463;-48
2022/05/13 09:38:59;;;;;;;7.47;4.30;;;;;;;32.69;25.34;99859.84;5044729;28;20037;-51
2022/05/13 09:41:33;;;;;;;6.90;4.18;;;;;;;33.50;24.76;99861.63;5050086;28;20029;-50
2022/05/13 09:44:09;;;;;;;5.07;3.67;;;;;;;33.52;24.40;99853.00;5049644;28;20090;-50
2022/05/13 09:46:35;;;;;;;5.85;4.28;;;;;;;32.98;25.05;99851.59;5049965;28;20063;-48
2022/05/13 09:49:33;;;;;;;7.18;3.97;;;;;;;33.16;24.68;99850.13;5049951;28;20052;-51
2022/05/13 09:52:11;;;;;;;5.22;4.00;;;;;;;32.77;24.58;99841.56;5049607;28;20108;-49
2022/05/13 09:54:48;;;;;;;7.40;3.80;;;;;;;33.71;23.66;99844.06;5049637;28;20028;-51
2022/05/13 09:57:32;;;;;;;6.63;3.88;;;;;;;34.30;23.53;99842.28;5049824;28;20404;-50
2022/05/13 10:00:17;;;;;;;6.25;3.80;;;;;;;35.10;22.47;99828.88;5049432;28;20135;-51
2022/05/13 10:02:45;;;;;;;6.22;4.32;;;;;;;35.66;22.85;99831.03;5049386;28;20399;-51
2022/05/13 10:05:22;;;;;;;6.13;3.90;;;;;;;35.77;22.64;99826.47;5049650;28;20472;-51
2022/05/13 10:07:53;;;;;;;6.40;3.90;;;;;;;33.20;24.04;99815.19;5049719;28;20789;-51
2022/05/13 10:16:16;;;;;;;6.05;4.03;;;;;;;33.29;23.89;99801.22;5049058;28;20355;-48
2022/05/13 10:18:57;;;;;;;6.72;3.95;;;;;;;33.22;24.47;99790.00;5049425;28;20032;-52
2022/05/13 10:21:32;;;;;;;6.97;3.80;;;;;;;33.31;24.54;99790.66;5049635;28;20078;-48
2022/05/13 10:23:57;;;;;;;6.47;3.60;;;;;;;34.25;23.60;99788.94;5049796;28;20029;-51
2022/05/13 10:26:29;;;;;;;7.70;3.80;;;;;;;34.20;23.43;99799.47;5048551;28;20047;-51
2022/05/13 10:29:03;;;;;;;5.57;3.75;;;;;;;33.92;23.69;99780.28;5049243;28;20049;-48
2022/05/13 10:31:34;;;;;;;4.78;3.40;;;;;;;33.67;22.62;99769.47;5049327;28;20064;-47
2022/05/13 10:34:40;;;;;;;7.28;3.72;;;;;;;33.40;23.51;99777.47;5049444;28;20021;-52
2022/05/13 10:37:18;;;;;;;4.85;3.40;;;;;;;33.06;22.94;99771.50;5049257;28;20051;-49
2022/05/13 10:39:45;;;;;;;4.32;3.42;;;;;;;32.44;23.12;99767.41;5049432;28;20017;-51
2022/05/13 10:42:23;;;;;;;4.32;3.33;;;;;;;33.17;22.99;99765.47;5049224;28;20056;-51
2022/05/13 10:45:07;;;;;;;4.57;3.40;;;;;;;33.43;23.07;99762.16;5049036;28;20029;-52
2022/05/13 10:47:46;;;;;;;5.55;3.30;;;;;;;33.06;22.37;99757.72;5049376;28;20045;-49
2022/05/13 10:50:21;;;;;;;5.32;3.40;;;;;;;33.21;22.81;99747.09;5049107;28;20025;-48
2022/05/13 10:53:11;;;;;;;5.45;3.40;;;;;;;33.09;23.98;99757.00;5049114;28;20029;-48
2022/05/13 10:55:42;;;;;;;4.47;4.00;;;;;;;34.09;22.70;99752.25;5048793;28;20024;-49
2022/05/13 10:58:07;;;;;;;4.32;3.40;;;;;;;33.39;23.53;99742.00;5048903;28;20739;-51
2022/05/13 11:00:43;;;;;;;4.30;3.47;;;;;;;34.33;22.38;99737.41;5048994;28;20090;-49
2022/05/13 11:03:27;;;;;;;4.95;3.60;;;;;;;34.07;22.77;99733.31;5042459;28;20494;-48
2022/05/13 11:06:16;;;;;;;7.35;3.20;;;;;;;33.84;22.74;99730.44;5028974;28;20069;-49
2022/05/13 11:09:03;;;;;;;5.00;3.08;;;;;;;34.07;21.46;99732.50;5029211;28;20048;-48
2022/05/13 11:11:31;;;;;;;5.82;3.30;;;;;;;34.31;21.57;99725.13;5028970;28;20014;-49
2022/05/13 11:14:15;;;;;;;10.50;3.60;;;;;;;33.57;22.57;99718.41;5029200;28;20040;-49
2022/05/13 11:16:47;;;;;;;5.22;3.40;;;;;;;32.92;24.08;99714.06;5029223;28;20030;-49
2022/05/13 11:19:12;;;;;;;7.15;3.33;;;;;;;32.52;24.74;99714.16;5028941;28;20041;-55
2022/05/13 11:22:05;;;;;;;6.50;3.58;;;;;;;32.93;24.69;99710.13;5029184;28;20446;-48
2022/05/13 11:27:43;;;;;;;6.60;3.30;;;;;;;32.68;23.19;99700.44;5029200;28;20456;-47
2022/05/13 11:30:16;;;;;;;6.47;3.35;;;;;;;31.96;24.13;99703.91;5028382;28;20087;-47
2022/05/13 11:32:49;;;;;;;9.93;3.55;;;;;;;30.92;25.14;99698.69;5028603;28;20057;-49
2022/05/13 11:35:14;;;;;;;6.60;3.40;;;;;;;31.80;23.91;99692.03;5028868;28;20079;-49
2022/05/13 11:37:43;;;;;;;3.40;3.10;;;;;;;32.83;23.37;99685.88;5028946;28;20108;-48
2022/05/13 11:40:12;;;;;;;9.50;3.40;;;;;;;33.26;23.34;99686.16;5031633;28;20049;-48
2022/05/13 11:43:19;;;;;;;14.50;3.33;;;;;;;34.27;22.77;99687.22;5032378;28;20029;-49
2022/05/13 11:46:03;;;;;;;4.65;3.30;;;;;;;33.60;23.06;99681.00;5028248;28;20059;-51
2022/05/13 11:48:47;;;;;;;5.85;3.25;;;;;;;34.08;22.19;99668.66;5032609;28;20026;-50
2022/05/13 11:51:18;;;;;;;6.28;2.88;;;;;;;33.80;21.70;99666.13;5032570;28;20511;-48
2022/05/13 11:54:01;;;;;;;7.10;3.25;;;;;;;34.36;20.07;99664.88;5032386;28;20551;-48
2022/05/13 11:56:29;;;;;;;5.63;3.38;;;;;;;35.24;20.12;99655.75;5032698;28;20381;-49
2022/05/13 11:58:57;;;;;;;5.00;3.05;;;;;;;35.15;20.49;99660.72;5032711;28;20028;-50
2022/05/13 12:01:54;;;;;;;7.63;3.33;;;;;;;33.82;21.52;99650.00;5032232;28;20155;-50
2022/05/13 12:04:19;;;;;;;4.20;3.20;;;;;;;32.78;22.85;99655.81;5023481;28;20096;-48
2022/05/13 12:06:47;;;;;;;4.53;3.15;;;;;;;32.91;22.87;99635.28;5032787;28;20428;-49
2022/05/13 12:09:13;;;;;;;6.45;3.30;;;;;;;33.81;21.74;99631.81;5033040;28;20131;-51